createdAt,value
2023-06-03T00:00:06.443Z,101325.59
2023-06-03T00:05:08.444Z,101323.03
2023-06-03T00:10:10.562Z,101316.81
2023-06-03T00:15:12.499Z,101324.50
2023-06-03T00:20:14.947Z,101323.81
2023-06-03T00:25:16.846Z,101317.34
2023-06-03T00:30:18.605Z,101311.56
2023-06-03T00:35:20.551Z,101313.03
2023-06-03T00:40:22.373Z,101305.69
2023-06-03T00:45:24.292Z,101301.97
2023-06-03T00:50:26.392Z,101296.59
2023-06-03T00:55:28.379Z,101298.31
2023-06-03T01:00:30.096Z,101292.66
2023-06-03T01:05:32.056Z,101290.75
2023-06-03T01:11:08.941Z,101290.72
2023-06-03T01:16:13.947Z,101289.63
2023-06-03T01:21:16.361Z,101297.31
2023-06-03T01:26:18.200Z,101289.53
2023-06-03T01:31:20.225Z,101289.16
2023-06-03T01:36:22.225Z,101291.47
2023-06-03T01:41:25.373Z,101297.59
2023-06-03T01:46:27.810Z,101291.31
2023-06-03T01:51:29.696Z,101292.63
2023-06-03T01:56:32.072Z,101292.78
2023-06-03T02:01:35.754Z,101293.44
2023-06-03T02:06:37.436Z,101297.25
2023-06-03T02:11:47.124Z,101305.84
2023-06-03T02:16:49.066Z,101297.31
2023-06-03T02:21:50.950Z,101295.28
2023-06-03T02:26:52.604Z,101291.06
2023-06-03T02:31:57.717Z,101292.75
2023-06-03T02:36:59.454Z,101293.47
2023-06-03T02:42:01.423Z,101284.78
2023-06-03T02:47:06.958Z,101289.09
2023-06-03T02:52:08.891Z,101287.28
2023-06-03T02:57:10.879Z,101293.47
2023-06-03T03:02:12.761Z,101301.00
2023-06-03T03:07:14.716Z,101305.28
2023-06-03T03:12:16.710Z,101308.53
2023-06-03T03:17:20.488Z,101310.88
2023-06-03T03:22:23.294Z,101313.16
2023-06-03T03:27:26.156Z,101312.13
2023-06-03T03:32:28.402Z,101320.97
2023-06-03T03:37:30.673Z,101330.53
2023-06-03T03:42:32.947Z,101323.94
2023-06-03T03:47:35.628Z,101327.75
2023-06-03T03:52:38.148Z,101327.75
2023-06-03T03:57:40.634Z,101328.22
2023-06-03T04:02:43.729Z,101333.94
2023-06-03T04:07:46.964Z,101337.78
2023-06-03T04:12:49.114Z,101335.41
2023-06-03T04:17:53.002Z,101332.53
2023-06-03T04:22:55.385Z,101332.00
2023-06-03T04:27:57.477Z,101338.53
2023-06-03T04:32:59.546Z,101342.16
2023-06-03T04:38:04.760Z,101344.22
2023-06-03T04:43:06.711Z,101340.91
2023-06-03T04:48:13.355Z,101338.25
2023-06-03T04:53:15.356Z,101337.38
2023-06-03T04:58:17.691Z,101345.13
2023-06-03T05:03:19.868Z,101336.72
2023-06-03T05:08:22.112Z,101345.72
2023-06-03T05:13:27.063Z,101344.78
2023-06-03T05:18:29.076Z,101352.91
2023-06-03T05:23:31.011Z,101353.63
2023-06-03T05:28:33.156Z,101353.56
2023-06-03T05:33:35.680Z,101351.47
2023-06-03T05:38:43.050Z,101357.50
2023-06-03T05:43:47.574Z,101364.13
2023-06-03T05:48:49.379Z,101357.53
2023-06-03T05:53:52.295Z,101352.56
2023-06-03T05:58:58.594Z,101356.13
2023-06-03T06:04:01.798Z,101356.97
2023-06-03T06:09:04.345Z,101357.66
2023-06-03T06:14:06.571Z,101353.56
2023-06-03T06:19:08.398Z,101346.78
2023-06-03T06:24:12.319Z,101358.34
2023-06-03T06:29:14.770Z,101356.03
2023-06-03T06:34:17.735Z,101355.28
2023-06-03T06:39:34.220Z,101360.59
2023-06-03T06:44:46.226Z,101353.47
2023-06-03T06:49:49.562Z,101355.63
2023-06-03T06:54:54.303Z,101350.81
2023-06-03T06:59:57.545Z,101357.38
2023-06-03T07:05:00.360Z,101365.84
2023-06-03T07:10:03.361Z,101361.97
2023-06-03T07:15:05.791Z,101360.84
2023-06-03T07:20:08.143Z,101350.81
2023-06-03T07:25:20.777Z,101352.25
2023-06-03T07:30:22.851Z,101352.22
2023-06-03T07:35:24.700Z,101346.75
2023-06-03T07:40:41.920Z,101343.91
2023-06-03T07:45:44.224Z,101344.13
2023-06-03T07:50:47.638Z,101352.16
2023-06-03T07:55:49.711Z,101347.22
2023-06-03T08:00:52.339Z,101349.72
2023-06-03T08:05:54.021Z,101355.97
2023-06-03T08:10:55.673Z,101342.56
2023-06-03T08:15:57.480Z,101346.31
2023-06-03T08:21:03.522Z,101344.03
2023-06-03T08:26:05.758Z,101340.84
2023-06-03T08:31:08.155Z,101341.72
2023-06-03T08:36:09.890Z,101344.53
2023-06-03T08:41:11.644Z,101334.56
2023-06-03T08:46:23.351Z,101326.75
2023-06-03T08:51:25.072Z,101331.28
2023-06-03T08:56:27.963Z,101320.16
2023-06-03T09:01:39.696Z,101317.09
2023-06-03T09:06:45.074Z,101314.00
2023-06-03T09:11:47.064Z,101317.78
2023-06-03T09:16:48.848Z,101328.38
2023-06-03T09:21:53.173Z,101330.97
2023-06-03T09:26:56.130Z,101332.75
2023-06-03T09:31:58.684Z,101324.13
2023-06-03T09:37:08.120Z,101315.69
2023-06-03T09:42:10.247Z,101323.09
2023-06-03T09:47:12.411Z,101327.66
2023-06-03T09:52:34.361Z,101317.47
2023-06-03T09:57:38.293Z,101326.28
2023-06-03T10:02:43.398Z,101322.81
2023-06-03T10:07:48.671Z,101313.97
2023-06-03T10:12:51.486Z,101323.72
2023-06-03T10:17:53.215Z,101312.38
2023-06-03T10:22:55.192Z,101308.75
2023-06-03T10:27:57.937Z,101310.75
2023-06-03T10:33:01.418Z,101318.22
2023-06-03T10:38:05.028Z,101315.59
2023-06-03T10:43:10.277Z,101316.38
2023-06-03T10:48:16.447Z,101315.97
2023-06-03T10:53:45.885Z,101311.19
2023-06-03T10:59:00.357Z,101318.84
2023-06-03T11:04:02.025Z,101324.56
2023-06-03T11:09:08.296Z,101304.13
2023-06-03T11:14:40.179Z,101302.69
2023-06-03T11:19:56.294Z,101297.44
2023-06-03T11:24:59.383Z,101295.66
2023-06-03T11:30:03.366Z,101300.97
2023-06-03T11:35:05.667Z,101303.41
2023-06-03T11:40:08.267Z,101305.47
2023-06-03T11:45:22.196Z,101309.41
2023-06-03T11:50:27.587Z,101306.03
2023-06-03T11:55:34.561Z,101293.13
2023-06-03T12:00:36.675Z,101285.56
2023-06-03T12:05:55.563Z,101288.44
2023-06-03T12:10:57.165Z,101280.28
2023-06-03T12:15:58.962Z,101276.31
2023-06-03T12:21:23.073Z,101263.31
2023-06-03T12:26:25.987Z,101263.97
2023-06-03T12:31:28.115Z,101263.13
2023-06-03T12:36:50.133Z,101267.38
2023-06-03T12:41:53.044Z,101260.41
2023-06-03T12:47:02.337Z,101261.84
2023-06-03T12:52:21.933Z,101253.91
2023-06-03T12:57:24.462Z,101257.84
2023-06-03T13:02:26.748Z,101256.19
2023-06-03T13:07:29.834Z,101254.41
2023-06-03T13:12:32.766Z,101248.53
2023-06-03T13:17:35.853Z,101242.72
2023-06-03T13:22:40.455Z,101240.06
2023-06-03T13:27:42.274Z,101228.88
2023-06-03T13:32:44.553Z,101234.72
2023-06-03T13:37:46.274Z,101239.28
2023-06-03T13:42:49.489Z,101238.25
2023-06-03T13:47:52.011Z,101235.03
2023-06-03T13:52:53.739Z,101228.13
2023-06-03T13:57:55.748Z,101218.31
2023-06-03T14:02:57.737Z,101217.34
2023-06-03T14:07:59.690Z,101202.34
2023-06-03T14:13:01.716Z,101198.81
2023-06-03T14:18:03.979Z,101197.91
2023-06-03T14:23:06.763Z,101189.03
2023-06-03T14:28:08.525Z,101192.22
2023-06-03T14:33:10.823Z,101188.38
2023-06-03T14:38:12.482Z,101175.53
2023-06-03T14:43:15.382Z,101174.97
2023-06-03T14:48:17.452Z,101167.25
2023-06-03T14:53:19.336Z,101161.22
2023-06-03T14:58:21.573Z,101168.72
2023-06-03T15:03:23.442Z,101152.31
2023-06-03T15:08:26.699Z,101150.13
2023-06-03T15:13:28.542Z,101162.44
2023-06-03T15:18:30.759Z,101154.13
2023-06-03T15:23:32.855Z,101152.84
2023-06-03T15:28:34.768Z,101152.72
2023-06-03T15:33:36.422Z,101144.22
2023-06-03T15:38:38.190Z,101139.66
2023-06-03T15:43:40.056Z,101136.78
2023-06-03T15:48:41.834Z,101132.81
2023-06-03T15:53:43.555Z,101134.25
2023-06-03T15:58:45.427Z,101140.34
2023-06-03T16:03:47.316Z,101148.22
2023-06-03T16:08:49.487Z,101144.91
2023-06-03T16:13:51.577Z,101141.91
2023-06-03T16:18:53.143Z,101136.41
2023-06-03T16:23:54.933Z,101145.09
2023-06-03T16:28:56.939Z,101136.09
2023-06-03T16:34:01.182Z,101138.44
2023-06-03T16:39:03.297Z,101134.38
2023-06-03T16:44:05.254Z,101129.75
2023-06-03T16:49:07.156Z,101131.53
2023-06-03T16:54:09.244Z,101128.97
2023-06-03T16:59:11.162Z,101135.66
2023-06-03T17:04:12.836Z,101140.56
2023-06-03T17:09:15.268Z,101145.22
2023-06-03T17:14:17.094Z,101137.41
2023-06-03T17:19:19.166Z,101147.06
2023-06-03T17:24:21.101Z,101137.66
2023-06-03T17:29:23.216Z,101136.78
2023-06-03T17:34:25.263Z,101140.09
2023-06-03T17:39:27.246Z,101135.19
2023-06-03T17:44:29.179Z,101135.97
2023-06-03T17:49:31.307Z,101136.84
2023-06-03T17:54:33.218Z,101141.75
2023-06-03T17:59:36.294Z,101141.97
2023-06-03T18:04:38.330Z,101136.31
2023-06-03T18:09:40.354Z,101146.78
2023-06-03T18:14:42.501Z,101144.41
2023-06-03T18:19:44.832Z,101154.63
2023-06-03T18:24:46.810Z,101162.72
2023-06-03T18:29:48.886Z,101165.56
2023-06-03T18:34:51.035Z,101164.88
2023-06-03T18:39:53.758Z,101163.31
2023-06-03T18:44:55.376Z,101169.19
2023-06-03T18:49:57.380Z,101159.78
2023-06-03T18:54:59.310Z,101158.72
2023-06-03T19:00:04.464Z,101176.50
2023-06-03T19:05:06.729Z,101182.22
2023-06-03T19:10:09.329Z,101186.63
2023-06-03T19:15:13.498Z,101183.63
2023-06-03T19:20:15.757Z,101181.25
2023-06-03T19:30:19.870Z,101190.72
2023-06-03T19:35:21.932Z,101204.53
2023-06-03T19:40:23.952Z,101212.25
2023-06-03T19:45:27.503Z,101206.75
2023-06-03T19:50:30.559Z,101217.47
2023-06-03T19:55:32.172Z,101225.94
2023-06-03T20:00:34.329Z,101239.19
2023-06-03T20:05:36.737Z,101248.38
2023-06-03T20:10:39.532Z,101243.75
2023-06-03T20:15:41.188Z,101249.66
2023-06-03T20:20:43.198Z,101248.63
2023-06-03T20:25:44.891Z,101247.97
2023-06-03T20:30:46.766Z,101250.13
2023-06-03T20:35:48.652Z,101256.34
2023-06-03T20:40:50.276Z,101262.25
2023-06-03T20:45:52.639Z,101260.47
2023-06-03T20:50:55.189Z,101260.09
2023-06-03T20:55:57.150Z,101267.59
2023-06-03T21:00:59.057Z,101267.91
2023-06-03T21:06:00.673Z,101266.28
2023-06-03T21:11:02.891Z,101266.34
2023-06-03T21:16:04.891Z,101266.44
2023-06-03T21:21:06.780Z,101275.31
2023-06-03T21:26:08.778Z,101272.00
2023-06-03T21:31:10.783Z,101278.03
2023-06-03T21:36:12.596Z,101277.41
2023-06-03T21:41:14.274Z,101283.25
2023-06-03T21:46:15.925Z,101285.75
2023-06-03T21:51:18.151Z,101293.44
2023-06-03T21:56:20.019Z,101287.88
2023-06-03T22:01:21.695Z,101287.94
2023-06-03T22:06:24.326Z,101288.88
2023-06-03T22:11:26.785Z,101289.03
2023-06-03T22:16:28.634Z,101300.75
2023-06-03T22:21:30.413Z,101298.97
2023-06-03T22:26:32.078Z,101302.97
2023-06-03T22:31:34.833Z,101298.19
2023-06-03T22:36:37.081Z,101300.81
2023-06-03T22:41:38.702Z,101304.94
2023-06-03T22:46:40.512Z,101305.28
2023-06-03T22:51:42.269Z,101314.88
2023-06-03T22:56:43.919Z,101313.50
2023-06-03T23:01:45.656Z,101323.84
2023-06-03T23:06:47.291Z,101322.38
2023-06-03T23:11:48.894Z,101313.78
2023-06-03T23:16:50.607Z,101314.72
2023-06-03T23:21:54.424Z,101323.53
2023-06-03T23:26:56.153Z,101317.94
2023-06-03T23:31:57.993Z,101321.53
2023-06-03T23:36:59.665Z,101318.44
2023-06-03T23:42:01.445Z,101303.47
2023-06-03T23:47:03.236Z,101310.13
2023-06-03T23:52:05.263Z,101304.81
2023-06-03T23:57:06.913Z,101305.69
